sensor_id;sensor_type;location;lat;lon;timestamp;temperature;humidity
14057;DHT22;7103;54.300;10.180;2023-12-07T00:02:04;1.40;99.90
14057;DHT22;7103;54.300;10.180;2023-12-07T00:04:34;1.40;99.90
14057;DHT22;7103;54.300;10.180;2023-12-07T00:07:01;1.40;99.90
14057;DHT22;7103;54.300;10.180;2023-12-07T00:09:28;1.40;99.90
14057;DHT22;7103;54.300;10.180;2023-12-07T00:11:55;1.40;99.90
14057;DHT22;7103;54.300;10.180;2023-12-07T00:14:22;1.40;99.90
14057;DHT22;7103;54.300;10.180;2023-12-07T00:16:49;1.40;99.90
14057;DHT22;7103;54.300;10.180;2023-12-07T00:19:16;1.20;99.90
14057;DHT22;7103;54.300;10.180;2023-12-07T00:21:44;1.40;99.90
14057;DHT22;7103;54.300;10.180;2023-12-07T00:24:11;1.40;99.90
14057;DHT22;7103;54.300;10.180;2023-12-07T00:26:38;1.40;99.90
14057;DHT22;7103;54.300;10.180;2023-12-07T00:29:06;1.40;99.90
14057;DHT22;7103;54.300;10.180;2023-12-07T00:31:33;1.40;99.90
14057;DHT22;7103;54.300;10.180;2023-12-07T00:34:00;1.50;99.90
14057;DHT22;7103;54.300;10.180;2023-12-07T00:36:27;1.40;99.90
14057;DHT22;7103;54.300;10.180;2023-12-07T00:38:54;1.30;99.90
14057;DHT22;7103;54.300;10.180;2023-12-07T00:41:22;1.40;99.90
14057;DHT22;7103;54.300;10.180;2023-12-07T00:43:49;1.40;99.90
14057;DHT22;7103;54.300;10.180;2023-12-07T00:46:19;1.40;99.90
14057;DHT22;7103;54.300;10.180;2023-12-07T00:48:46;1.40;99.90
14057;DHT22;7103;54.300;10.180;2023-12-07T00:51:13;1.40;99.90
14057;DHT22;7103;54.300;10.180;2023-12-07T00:53:45;1.40;99.90
14057;DHT22;7103;54.300;10.180;2023-12-07T00:56:12;1.50;99.90
14057;DHT22;7103;54.300;10.180;2023-12-07T00:58:42;1.40;99.90
14057;DHT22;7103;54.300;10.180;2023-12-07T01:01:09;1.40;99.90
14057;DHT22;7103;54.300;10.180;2023-12-07T01:03:37;1.40;99.90
14057;DHT22;7103;54.300;10.180;2023-12-07T01:06:13;1.40;99.90
14057;DHT22;7103;54.300;10.180;2023-12-07T01:08:41;1.40;99.90
14057;DHT22;7103;54.300;10.180;2023-12-07T01:11:08;1.40;99.90
14057;DHT22;7103;54.300;10.180;2023-12-07T01:13:35;1.40;99.90
14057;DHT22;7103;54.300;10.180;2023-12-07T01:16:05;1.40;99.90
14057;DHT22;7103;54.300;10.180;2023-12-07T01:18:34;1.40;99.90
14057;DHT22;7103;54.300;10.180;2023-12-07T01:21:01;1.40;99.90
14057;DHT22;7103;54.300;10.180;2023-12-07T01:23:29;1.40;99.90
14057;DHT22;7103;54.300;10.180;2023-12-07T01:25:56;1.40;99.90
14057;DHT22;7103;54.300;10.180;2023-12-07T01:28:24;1.40;99.90
14057;DHT22;7103;54.300;10.180;2023-12-07T01:30:51;1.40;99.90
14057;DHT22;7103;54.300;10.180;2023-12-07T01:33:18;1.40;99.90
14057;DHT22;7103;54.300;10.180;2023-12-07T01:35:46;1.40;99.90
14057;DHT22;7103;54.300;10.180;2023-12-07T01:38:16;1.40;99.90
14057;DHT22;7103;54.300;10.180;2023-12-07T01:40:43;1.40;99.90
14057;DHT22;7103;54.300;10.180;2023-12-07T01:43:12;1.40;99.90
14057;DHT22;7103;54.300;10.180;2023-12-07T01:45:42;1.50;99.90
14057;DHT22;7103;54.300;10.180;2023-12-07T01:48:09;1.40;99.90
14057;DHT22;7103;54.300;10.180;2023-12-07T01:50:37;1.40;99.90
14057;DHT22;7103;54.300;10.180;2023-12-07T01:53:04;1.40;99.90
14057;DHT22;7103;54.300;10.180;2023-12-07T01:55:35;1.40;99.90
14057;DHT22;7103;54.300;10.180;2023-12-07T01:58:05;1.40;99.90
14057;DHT22;7103;54.300;10.180;2023-12-07T02:00:34;1.60;99.90
14057;DHT22;7103;54.300;10.180;2023-12-07T02:03:04;1.40;99.90
14057;DHT22;7103;54.300;10.180;2023-12-07T02:05:32;1.40;99.90
14057;DHT22;7103;54.300;10.180;2023-12-07T02:08:00;1.60;99.90
14057;DHT22;7103;54.300;10.180;2023-12-07T02:10:27;1.60;99.90
14057;DHT22;7103;54.300;10.180;2023-12-07T02:12:54;1.50;99.90
14057;DHT22;7103;54.300;10.180;2023-12-07T02:15:21;1.60;99.90
14057;DHT22;7103;54.300;10.180;2023-12-07T02:18:02;1.60;99.90
14057;DHT22;7103;54.300;10.180;2023-12-07T02:23:20;1.50;99.90
14057;DHT22;7103;54.300;10.180;2023-12-07T02:26:08;1.50;99.90
14057;DHT22;7103;54.300;10.180;2023-12-07T02:28:41;1.60;99.90
14057;DHT22;7103;54.300;10.180;2023-12-07T02:31:09;1.50;99.90
14057;DHT22;7103;54.300;10.180;2023-12-07T02:33:36;1.60;99.90
14057;DHT22;7103;54.300;10.180;2023-12-07T02:36:04;1.50;99.90
14057;DHT22;7103;54.300;10.180;2023-12-07T02:38:34;1.50;99.90
14057;DHT22;7103;54.300;10.180;2023-12-07T02:41:03;1.50;99.90
14057;DHT22;7103;54.300;10.180;2023-12-07T02:43:30;1.60;99.90
14057;DHT22;7103;54.300;10.180;2023-12-07T02:45:58;1.60;99.90
14057;DHT22;7103;54.300;10.180;2023-12-07T02:48:25;1.70;99.90
14057;DHT22;7103;54.300;10.180;2023-12-07T02:50:53;1.60;99.90
14057;DHT22;7103;54.300;10.180;2023-12-07T02:53:20;1.80;99.90
14057;DHT22;7103;54.300;10.180;2023-12-07T02:55:47;1.60;99.90
14057;DHT22;7103;54.300;10.180;2023-12-07T02:58:14;1.50;99.90
14057;DHT22;7103;54.300;10.180;2023-12-07T03:00:41;1.50;99.90
14057;DHT22;7103;54.300;10.180;2023-12-07T03:03:10;1.60;99.90
14057;DHT22;7103;54.300;10.180;2023-12-07T03:05:37;1.50;99.90
14057;DHT22;7103;54.300;10.180;2023-12-07T03:08:07;1.40;99.90
14057;DHT22;7103;54.300;10.180;2023-12-07T03:10:34;1.50;99.90
14057;DHT22;7103;54.300;10.180;2023-12-07T03:13:01;1.50;99.90
14057;DHT22;7103;54.300;10.180;2023-12-07T03:15:29;1.50;99.90
14057;DHT22;7103;54.300;10.180;2023-12-07T03:17:56;1.40;99.90
14057;DHT22;7103;54.300;10.180;2023-12-07T03:20:29;1.60;99.90
14057;DHT22;7103;54.300;10.180;2023-12-07T03:22:56;1.40;99.90
14057;DHT22;7103;54.300;10.180;2023-12-07T03:25:24;1.40;99.90
14057;DHT22;7103;54.300;10.180;2023-12-07T03:27:54;1.40;99.90
14057;DHT22;7103;54.300;10.180;2023-12-07T03:30:21;1.40;99.90
14057;DHT22;7103;54.300;10.180;2023-12-07T03:32:48;1.40;99.90
14057;DHT22;7103;54.300;10.180;2023-12-07T03:35:16;1.50;99.90
14057;DHT22;7103;54.300;10.180;2023-12-07T03:37:43;1.50;99.90
14057;DHT22;7103;54.300;10.180;2023-12-07T03:40:10;1.50;99.90
14057;DHT22;7103;54.300;10.180;2023-12-07T03:42:38;1.50;99.90
14057;DHT22;7103;54.300;10.180;2023-12-07T03:45:22;1.50;99.90
14057;DHT22;7103;54.300;10.180;2023-12-07T03:47:49;1.50;99.90
14057;DHT22;7103;54.300;10.180;2023-12-07T03:50:19;1.60;99.90
14057;DHT22;7103;54.300;10.180;2023-12-07T03:52:52;1.50;99.90
14057;DHT22;7103;54.300;10.180;2023-12-07T03:55:19;1.50;99.90
14057;DHT22;7103;54.300;10.180;2023-12-07T03:57:47;1.50;99.90
14057;DHT22;7103;54.300;10.180;2023-12-07T04:00:14;1.50;99.90
14057;DHT22;7103;54.300;10.180;2023-12-07T04:02:41;1.50;99.90
14057;DHT22;7103;54.300;10.180;2023-12-07T04:05:08;1.50;99.90
14057;DHT22;7103;54.300;10.180;2023-12-07T04:07:36;1.40;99.90
14057;DHT22;7103;54.300;10.180;2023-12-07T04:10:03;1.50;99.90
14057;DHT22;7103;54.300;10.180;2023-12-07T04:12:35;1.50;99.90
14057;DHT22;7103;54.300;10.180;2023-12-07T04:15:03;1.40;99.90
14057;DHT22;7103;54.300;10.180;2023-12-07T04:17:30;1.50;99.90
14057;DHT22;7103;54.300;10.180;2023-12-07T04:19:57;1.50;99.90
14057;DHT22;7103;54.300;10.180;2023-12-07T04:22:24;1.50;99.90
14057;DHT22;7103;54.300;10.180;2023-12-07T04:24:52;1.50;99.90
14057;DHT22;7103;54.300;10.180;2023-12-07T04:27:19;1.50;99.90
14057;DHT22;7103;54.300;10.180;2023-12-07T04:29:46;1.50;99.90
14057;DHT22;7103;54.300;10.180;2023-12-07T04:32:13;1.60;99.90
14057;DHT22;7103;54.300;10.180;2023-12-07T04:34:41;1.60;99.90
14057;DHT22;7103;54.300;10.180;2023-12-07T04:37:08;1.60;99.90
14057;DHT22;7103;54.300;10.180;2023-12-07T04:39:36;1.60;99.90
14057;DHT22;7103;54.300;10.180;2023-12-07T04:42:03;1.60;99.90
14057;DHT22;7103;54.300;10.180;2023-12-07T04:44:31;1.60;99.90
14057;DHT22;7103;54.300;10.180;2023-12-07T04:47:01;1.60;99.90
14057;DHT22;7103;54.300;10.180;2023-12-07T04:49:28;1.50;99.90
14057;DHT22;7103;54.300;10.180;2023-12-07T04:51:55;1.50;99.90
14057;DHT22;7103;54.300;10.180;2023-12-07T04:54:22;1.30;99.90
14057;DHT22;7103;54.300;10.180;2023-12-07T04:56:50;1.50;99.90
14057;DHT22;7103;54.300;10.180;2023-12-07T04:59:20;1.50;99.90
14057;DHT22;7103;54.300;10.180;2023-12-07T05:01:47;1.40;99.90
14057;DHT22;7103;54.300;10.180;2023-12-07T05:04:15;1.50;99.90
14057;DHT22;7103;54.300;10.180;2023-12-07T05:06:42;1.50;99.90
14057;DHT22;7103;54.300;10.180;2023-12-07T05:09:09;1.40;99.90
14057;DHT22;7103;54.300;10.180;2023-12-07T05:11:36;1.50;99.90
14057;DHT22;7103;54.300;10.180;2023-12-07T05:14:04;1.60;99.90
14057;DHT22;7103;54.300;10.180;2023-12-07T05:16:31;1.50;99.90
14057;DHT22;7103;54.300;10.180;2023-12-07T05:18:59;1.50;99.90
14057;DHT22;7103;54.300;10.180;2023-12-07T05:21:26;1.60;99.90
14057;DHT22;7103;54.300;10.180;2023-12-07T05:23:53;1.50;99.90
14057;DHT22;7103;54.300;10.180;2023-12-07T05:26:21;1.40;99.90
14057;DHT22;7103;54.300;10.180;2023-12-07T05:28:48;1.40;99.90
14057;DHT22;7103;54.300;10.180;2023-12-07T05:31:18;1.40;99.90
14057;DHT22;7103;54.300;10.180;2023-12-07T05:33:46;1.40;99.90
14057;DHT22;7103;54.300;10.180;2023-12-07T05:36:13;1.40;99.90
14057;DHT22;7103;54.300;10.180;2023-12-07T05:38:40;1.40;99.90
14057;DHT22;7103;54.300;10.180;2023-12-07T05:41:08;1.40;99.90
14057;DHT22;7103;54.300;10.180;2023-12-07T05:43:40;1.50;99.90
14057;DHT22;7103;54.300;10.180;2023-12-07T05:46:07;1.40;99.90
14057;DHT22;7103;54.300;10.180;2023-12-07T05:48:35;1.40;99.90
14057;DHT22;7103;54.300;10.180;2023-12-07T05:51:02;1.60;99.90
14057;DHT22;7103;54.300;10.180;2023-12-07T05:53:30;1.50;99.90
14057;DHT22;7103;54.300;10.180;2023-12-07T05:55:59;1.60;99.90
14057;DHT22;7103;54.300;10.180;2023-12-07T05:58:30;1.50;99.90
14057;DHT22;7103;54.300;10.180;2023-12-07T06:01:00;1.50;99.90
14057;DHT22;7103;54.300;10.180;2023-12-07T06:03:29;1.50;99.90
14057;DHT22;7103;54.300;10.180;2023-12-07T06:05:57;1.50;99.90
14057;DHT22;7103;54.300;10.180;2023-12-07T06:08:25;1.50;99.90
14057;DHT22;7103;54.300;10.180;2023-12-07T06:10:52;1.60;99.90
14057;DHT22;7103;54.300;10.180;2023-12-07T06:13:19;1.60;99.90
14057;DHT22;7103;54.300;10.180;2023-12-07T06:15:46;1.60;99.90
14057;DHT22;7103;54.300;10.180;2023-12-07T06:18:14;1.60;99.90
14057;DHT22;7103;54.300;10.180;2023-12-07T06:20:42;1.50;99.90
14057;DHT22;7103;54.300;10.180;2023-12-07T06:23:10;1.50;99.90
14057;DHT22;7103;54.300;10.180;2023-12-07T06:25:54;1.60;99.90
14057;DHT22;7103;54.300;10.180;2023-12-07T06:28:22;1.70;99.90
14057;DHT22;7103;54.300;10.180;2023-12-07T06:30:49;1.50;99.90
14057;DHT22;7103;54.300;10.180;2023-12-07T06:33:16;1.50;99.90
14057;DHT22;7103;54.300;10.180;2023-12-07T06:35:43;1.50;99.90
14057;DHT22;7103;54.300;10.180;2023-12-07T06:38:13;1.60;99.90
14057;DHT22;7103;54.300;10.180;2023-12-07T06:40:40;1.60;99.90
14057;DHT22;7103;54.300;10.180;2023-12-07T06:43:08;1.50;99.90
14057;DHT22;7103;54.300;10.180;2023-12-07T06:45:35;1.40;99.90
14057;DHT22;7103;54.300;10.180;2023-12-07T06:48:02;1.50;99.90
14057;DHT22;7103;54.300;10.180;2023-12-07T06:50:32;1.50;99.90
14057;DHT22;7103;54.300;10.180;2023-12-07T06:52:59;1.50;99.90
14057;DHT22;7103;54.300;10.180;2023-12-07T06:55:27;1.50;99.90
14057;DHT22;7103;54.300;10.180;2023-12-07T06:57:55;1.60;99.90
14057;DHT22;7103;54.300;10.180;2023-12-07T07:00:24;1.50;99.90
14057;DHT22;7103;54.300;10.180;2023-12-07T07:02:52;1.50;99.90
14057;DHT22;7103;54.300;10.180;2023-12-07T07:05:18;1.60;99.90
14057;DHT22;7103;54.300;10.180;2023-12-07T07:07:46;1.50;99.90
14057;DHT22;7103;54.300;10.180;2023-12-07T07:10:13;1.50;99.90
14057;DHT22;7103;54.300;10.180;2023-12-07T07:12:40;1.50;99.90
14057;DHT22;7103;54.300;10.180;2023-12-07T07:15:08;1.60;99.90
14057;DHT22;7103;54.300;10.180;2023-12-07T07:17:35;1.50;99.90
14057;DHT22;7103;54.300;10.180;2023-12-07T07:20:02;1.50;99.90
14057;DHT22;7103;54.300;10.180;2023-12-07T07:22:30;1.50;99.90
14057;DHT22;7103;54.300;10.180;2023-12-07T07:24:57;1.50;99.90
14057;DHT22;7103;54.300;10.180;2023-12-07T07:27:24;1.50;99.90
14057;DHT22;7103;54.300;10.180;2023-12-07T07:29:51;1.50;99.90
14057;DHT22;7103;54.300;10.180;2023-12-07T07:32:18;1.50;99.90
14057;DHT22;7103;54.300;10.180;2023-12-07T07:34:45;1.60;99.90
14057;DHT22;7103;54.300;10.180;2023-12-07T07:37:12;1.60;99.90
14057;DHT22;7103;54.300;10.180;2023-12-07T07:39:40;1.50;99.90
14057;DHT22;7103;54.300;10.180;2023-12-07T07:42:06;1.60;99.90
14057;DHT22;7103;54.300;10.180;2023-12-07T07:44:33;1.70;99.90
14057;DHT22;7103;54.300;10.180;2023-12-07T07:47:00;1.60;99.90
14057;DHT22;7103;54.300;10.180;2023-12-07T07:49:27;1.60;99.90
14057;DHT22;7103;54.300;10.180;2023-12-07T07:51:54;1.60;99.90
14057;DHT22;7103;54.300;10.180;2023-12-07T07:54:21;1.60;99.90
14057;DHT22;7103;54.300;10.180;2023-12-07T07:56:48;1.60;99.90
14057;DHT22;7103;54.300;10.180;2023-12-07T07:59:15;1.80;99.90
14057;DHT22;7103;54.300;10.180;2023-12-07T08:01:42;1.70;99.90
14057;DHT22;7103;54.300;10.180;2023-12-07T08:04:09;1.70;99.90
14057;DHT22;7103;54.300;10.180;2023-12-07T08:06:37;1.80;99.90
14057;DHT22;7103;54.300;10.180;2023-12-07T08:09:04;1.60;99.90
14057;DHT22;7103;54.300;10.180;2023-12-07T08:11:31;1.70;99.90
14057;DHT22;7103;54.300;10.180;2023-12-07T08:14:00;1.70;99.90
14057;DHT22;7103;54.300;10.180;2023-12-07T08:16:27;1.70;99.90
14057;DHT22;7103;54.300;10.180;2023-12-07T08:18:54;1.70;99.90
14057;DHT22;7103;54.300;10.180;2023-12-07T08:21:22;1.70;99.90
14057;DHT22;7103;54.300;10.180;2023-12-07T08:23:55;1.70;99.90
14057;DHT22;7103;54.300;10.180;2023-12-07T08:26:25;1.70;99.90
14057;DHT22;7103;54.300;10.180;2023-12-07T08:28:54;1.80;99.90
14057;DHT22;7103;54.300;10.180;2023-12-07T08:31:21;1.80;99.90
14057;DHT22;7103;54.300;10.180;2023-12-07T08:33:53;1.90;99.90
14057;DHT22;7103;54.300;10.180;2023-12-07T08:36:20;1.80;99.90
14057;DHT22;7103;54.300;10.180;2023-12-07T08:38:48;1.80;99.90
14057;DHT22;7103;54.300;10.180;2023-12-07T08:41:15;1.90;99.90
14057;DHT22;7103;54.300;10.180;2023-12-07T08:43:42;1.80;99.90
14057;DHT22;7103;54.300;10.180;2023-12-07T08:46:09;1.90;99.90
14057;DHT22;7103;54.300;10.180;2023-12-07T08:48:37;1.90;99.90
14057;DHT22;7103;54.300;10.180;2023-12-07T08:51:09;1.90;99.90
14057;DHT22;7103;54.300;10.180;2023-12-07T08:53:38;1.80;99.90
14057;DHT22;7103;54.300;10.180;2023-12-07T08:56:05;1.80;99.90
14057;DHT22;7103;54.300;10.180;2023-12-07T08:58:32;1.80;99.90
14057;DHT22;7103;54.300;10.180;2023-12-07T09:00:59;1.80;99.90
14057;DHT22;7103;54.300;10.180;2023-12-07T09:03:26;1.80;99.90
14057;DHT22;7103;54.300;10.180;2023-12-07T09:05:54;2.00;99.90
14057;DHT22;7103;54.300;10.180;2023-12-07T09:08:21;2.00;99.90
14057;DHT22;7103;54.300;10.180;2023-12-07T09:10:48;2.00;99.90
14057;DHT22;7103;54.300;10.180;2023-12-07T09:13:18;2.00;99.90
14057;DHT22;7103;54.300;10.180;2023-12-07T09:15:45;2.00;99.90
14057;DHT22;7103;54.300;10.180;2023-12-07T09:18:12;1.90;99.90
14057;DHT22;7103;54.300;10.180;2023-12-07T09:20:42;2.00;99.90
14057;DHT22;7103;54.300;10.180;2023-12-07T09:23:15;2.00;99.90
14057;DHT22;7103;54.300;10.180;2023-12-07T09:25:42;2.10;99.90
14057;DHT22;7103;54.300;10.180;2023-12-07T09:28:10;2.10;99.90
14057;DHT22;7103;54.300;10.180;2023-12-07T09:30:38;2.00;99.90
14057;DHT22;7103;54.300;10.180;2023-12-07T09:33:05;2.10;99.90
14057;DHT22;7103;54.300;10.180;2023-12-07T09:35:32;2.10;99.90
14057;DHT22;7103;54.300;10.180;2023-12-07T09:38:01;2.10;99.90
14057;DHT22;7103;54.300;10.180;2023-12-07T09:40:29;2.10;99.90
14057;DHT22;7103;54.300;10.180;2023-12-07T09:42:57;2.10;99.90
14057;DHT22;7103;54.300;10.180;2023-12-07T09:45:24;2.10;99.90
14057;DHT22;7103;54.300;10.180;2023-12-07T09:47:54;2.40;99.90
14057;DHT22;7103;54.300;10.180;2023-12-07T09:50:23;2.30;99.90
14057;DHT22;7103;54.300;10.180;2023-12-07T09:52:52;2.30;99.90
14057;DHT22;7103;54.300;10.180;2023-12-07T09:55:33;2.30;99.90
14057;DHT22;7103;54.300;10.180;2023-12-07T09:58:04;2.40;99.90
14057;DHT22;7103;54.300;10.180;2023-12-07T10:00:32;2.50;99.90
14057;DHT22;7103;54.300;10.180;2023-12-07T10:03:00;2.60;99.90
14057;DHT22;7103;54.300;10.180;2023-12-07T10:05:27;2.40;99.90
14057;DHT22;7103;54.300;10.180;2023-12-07T10:07:54;2.50;99.90
14057;DHT22;7103;54.300;10.180;2023-12-07T10:10:21;2.50;99.90
14057;DHT22;7103;54.300;10.180;2023-12-07T10:12:55;2.50;99.90
14057;DHT22;7103;54.300;10.180;2023-12-07T10:15:24;2.60;99.90
14057;DHT22;7103;54.300;10.180;2023-12-07T10:17:54;2.50;99.90
14057;DHT22;7103;54.300;10.180;2023-12-07T10:20:25;2.60;99.90
14057;DHT22;7103;54.300;10.180;2023-12-07T10:23:04;2.50;99.90
14057;DHT22;7103;54.300;10.180;2023-12-07T10:25:33;2.50;99.90
14057;DHT22;7103;54.300;10.180;2023-12-07T10:28:02;2.50;99.90
14057;DHT22;7103;54.300;10.180;2023-12-07T10:30:34;2.50;99.90
14057;DHT22;7103;54.300;10.180;2023-12-07T10:33:03;2.50;99.90
14057;DHT22;7103;54.300;10.180;2023-12-07T10:35:31;2.50;99.90
14057;DHT22;7103;54.300;10.180;2023-12-07T10:37:58;2.50;99.90
14057;DHT22;7103;54.300;10.180;2023-12-07T10:40:26;2.40;99.90
14057;DHT22;7103;54.300;10.180;2023-12-07T10:42:57;2.40;99.90
14057;DHT22;7103;54.300;10.180;2023-12-07T10:45:25;2.30;99.90
14057;DHT22;7103;54.300;10.180;2023-12-07T10:47:54;2.30;99.90
14057;DHT22;7103;54.300;10.180;2023-12-07T10:50:26;2.40;99.90
14057;DHT22;7103;54.300;10.180;2023-12-07T10:52:59;2.40;99.90
14057;DHT22;7103;54.300;10.180;2023-12-07T10:55:30;2.40;99.90
14057;DHT22;7103;54.300;10.180;2023-12-07T10:58:00;2.40;99.90
14057;DHT22;7103;54.300;10.180;2023-12-07T11:00:29;2.40;99.90
14057;DHT22;7103;54.300;10.180;2023-12-07T11:03:10;2.40;99.90
14057;DHT22;7103;54.300;10.180;2023-12-07T11:05:42;2.40;99.90
14057;DHT22;7103;54.300;10.180;2023-12-07T11:11:10;2.40;99.90
14057;DHT22;7103;54.300;10.180;2023-12-07T11:13:40;2.60;99.90
14057;DHT22;7103;54.300;10.180;2023-12-07T11:16:11;2.50;99.90
14057;DHT22;7103;54.300;10.180;2023-12-07T11:18:38;2.60;99.90
14057;DHT22;7103;54.300;10.180;2023-12-07T11:21:06;2.60;99.90
14057;DHT22;7103;54.300;10.180;2023-12-07T11:23:34;2.60;99.90
14057;DHT22;7103;54.300;10.180;2023-12-07T11:26:02;2.60;99.90
14057;DHT22;7103;54.300;10.180;2023-12-07T11:28:37;2.60;99.90
14057;DHT22;7103;54.300;10.180;2023-12-07T11:31:08;2.60;99.90
14057;DHT22;7103;54.300;10.180;2023-12-07T11:33:39;2.60;99.90
14057;DHT22;7103;54.300;10.180;2023-12-07T11:36:10;2.60;99.90
14057;DHT22;7103;54.300;10.180;2023-12-07T11:38:38;2.60;99.90
14057;DHT22;7103;54.300;10.180;2023-12-07T11:41:05;2.60;99.90
14057;DHT22;7103;54.300;10.180;2023-12-07T11:45:59;2.60;99.90
14057;DHT22;7103;54.300;10.180;2023-12-07T11:48:26;2.60;99.90
14057;DHT22;7103;54.300;10.180;2023-12-07T11:53:28;2.60;99.90
14057;DHT22;7103;54.300;10.180;2023-12-07T11:55:58;2.60;99.90
14057;DHT22;7103;54.300;10.180;2023-12-07T11:58:26;2.60;99.90
14057;DHT22;7103;54.300;10.180;2023-12-07T12:00:54;2.60;99.90
14057;DHT22;7103;54.300;10.180;2023-12-07T12:03:27;2.60;99.90
14057;DHT22;7103;54.300;10.180;2023-12-07T12:05:55;2.60;99.90
14057;DHT22;7103;54.300;10.180;2023-12-07T12:08:22;2.60;99.90
14057;DHT22;7103;54.300;10.180;2023-12-07T12:10:50;2.60;99.90
14057;DHT22;7103;54.300;10.180;2023-12-07T12:13:28;2.60;99.90
14057;DHT22;7103;54.300;10.180;2023-12-07T12:15:57;2.60;99.90
14057;DHT22;7103;54.300;10.180;2023-12-07T12:18:29;2.60;99.90
14057;DHT22;7103;54.300;10.180;2023-12-07T12:20:56;2.60;99.90
14057;DHT22;7103;54.300;10.180;2023-12-07T12:23:26;2.60;99.90
14057;DHT22;7103;54.300;10.180;2023-12-07T12:25:54;2.60;99.90
14057;DHT22;7103;54.300;10.180;2023-12-07T12:28:21;2.60;99.90
14057;DHT22;7103;54.300;10.180;2023-12-07T12:30:50;2.50;99.90
14057;DHT22;7103;54.300;10.180;2023-12-07T12:33:18;2.70;99.90
14057;DHT22;7103;54.300;10.180;2023-12-07T12:35:45;2.50;99.90
14057;DHT22;7103;54.300;10.180;2023-12-07T12:38:13;2.60;99.90
14057;DHT22;7103;54.300;10.180;2023-12-07T12:40:53;2.50;99.90
14057;DHT22;7103;54.300;10.180;2023-12-07T12:43:21;2.50;99.90
14057;DHT22;7103;54.300;10.180;2023-12-07T12:45:49;2.50;99.90
14057;DHT22;7103;54.300;10.180;2023-12-07T12:48:32;2.60;99.90
14057;DHT22;7103;54.300;10.180;2023-12-07T12:51:08;2.50;99.90
14057;DHT22;7103;54.300;10.180;2023-12-07T12:53:35;2.50;99.90
14057;DHT22;7103;54.300;10.180;2023-12-07T12:56:03;2.50;99.90
14057;DHT22;7103;54.300;10.180;2023-12-07T12:58:30;2.60;99.90
14057;DHT22;7103;54.300;10.180;2023-12-07T13:00:57;2.50;99.90
14057;DHT22;7103;54.300;10.180;2023-12-07T13:03:24;2.60;99.90
14057;DHT22;7103;54.300;10.180;2023-12-07T13:05:51;2.60;99.90
14057;DHT22;7103;54.300;10.180;2023-12-07T13:08:18;2.60;99.90
14057;DHT22;7103;54.300;10.180;2023-12-07T13:10:45;2.70;99.90
14057;DHT22;7103;54.300;10.180;2023-12-07T13:13:12;2.70;99.90
14057;DHT22;7103;54.300;10.180;2023-12-07T13:15:39;2.70;99.90
14057;DHT22;7103;54.300;10.180;2023-12-07T13:18:06;2.80;99.90
14057;DHT22;7103;54.300;10.180;2023-12-07T13:20:34;2.80;99.90
14057;DHT22;7103;54.300;10.180;2023-12-07T13:23:19;2.90;99.90
14057;DHT22;7103;54.300;10.180;2023-12-07T13:25:48;2.80;99.90
14057;DHT22;7103;54.300;10.180;2023-12-07T13:28:15;2.90;99.90
14057;DHT22;7103;54.300;10.180;2023-12-07T13:30:42;2.90;99.90
14057;DHT22;7103;54.300;10.180;2023-12-07T13:33:09;2.90;99.90
14057;DHT22;7103;54.300;10.180;2023-12-07T13:35:51;2.90;99.90
14057;DHT22;7103;54.300;10.180;2023-12-07T13:38:24;2.90;99.90
14057;DHT22;7103;54.300;10.180;2023-12-07T13:40:51;2.90;99.90
14057;DHT22;7103;54.300;10.180;2023-12-07T13:43:18;3.10;99.90
14057;DHT22;7103;54.300;10.180;2023-12-07T13:45:45;3.10;99.90
14057;DHT22;7103;54.300;10.180;2023-12-07T13:48:13;3.00;99.90
14057;DHT22;7103;54.300;10.180;2023-12-07T13:50:42;3.00;99.70
14057;DHT22;7103;54.300;10.180;2023-12-07T13:53:09;3.00;93.50
14057;DHT22;7103;54.300;10.180;2023-12-07T13:55:38;3.10;91.30
14057;DHT22;7103;54.300;10.180;2023-12-07T13:58:06;3.10;72.90
14057;DHT22;7103;54.300;10.180;2023-12-07T14:00:39;3.00;41.10
14057;DHT22;7103;54.300;10.180;2023-12-07T14:03:12;2.90;19.60
14057;DHT22;7103;54.300;10.180;2023-12-07T14:05:39;3.10;4.60
14057;DHT22;7103;54.300;10.180;2023-12-07T14:08:07;2.80;1.00
14057;DHT22;7103;54.300;10.180;2023-12-07T14:10:34;2.80;1.00
14057;DHT22;7103;54.300;10.180;2023-12-07T14:13:01;2.70;1.00
14057;DHT22;7103;54.300;10.180;2023-12-07T14:15:28;2.70;1.00
14057;DHT22;7103;54.300;10.180;2023-12-07T14:18:10;2.60;1.00
14057;DHT22;7103;54.300;10.180;2023-12-07T14:20:37;2.70;1.00
14057;DHT22;7103;54.300;10.180;2023-12-07T14:23:07;2.60;1.00
14057;DHT22;7103;54.300;10.180;2023-12-07T14:25:34;2.60;1.00
14057;DHT22;7103;54.300;10.180;2023-12-07T14:28:02;2.50;1.00
14057;DHT22;7103;54.300;10.180;2023-12-07T14:30:29;2.40;1.00
14057;DHT22;7103;54.300;10.180;2023-12-07T14:32:55;2.40;1.00
14057;DHT22;7103;54.300;10.180;2023-12-07T14:35:23;2.40;1.00
14057;DHT22;7103;54.300;10.180;2023-12-07T14:37:50;2.40;1.00
14057;DHT22;7103;54.300;10.180;2023-12-07T14:40:18;2.30;1.00
14057;DHT22;7103;54.300;10.180;2023-12-07T14:42:45;2.20;1.00
14057;DHT22;7103;54.300;10.180;2023-12-07T14:45:13;2.20;1.00
14057;DHT22;7103;54.300;10.180;2023-12-07T14:47:41;2.20;1.00
14057;DHT22;7103;54.300;10.180;2023-12-07T14:50:09;2.20;1.00
14057;DHT22;7103;54.300;10.180;2023-12-07T14:52:36;2.10;1.00
14057;DHT22;7103;54.300;10.180;2023-12-07T14:55:04;2.20;1.00
14057;DHT22;7103;54.300;10.180;2023-12-07T14:57:32;2.10;1.00
14057;DHT22;7103;54.300;10.180;2023-12-07T14:59:58;2.10;1.00
14057;DHT22;7103;54.300;10.180;2023-12-07T15:02:26;2.00;1.00
14057;DHT22;7103;54.300;10.180;2023-12-07T15:04:54;2.00;1.00
14057;DHT22;7103;54.300;10.180;2023-12-07T15:07:20;2.20;1.00
14057;DHT22;7103;54.300;10.180;2023-12-07T15:09:47;2.00;1.00
14057;DHT22;7103;54.300;10.180;2023-12-07T15:12:15;1.90;1.00
14057;DHT22;7103;54.300;10.180;2023-12-07T15:14:45;2.10;1.00
14057;DHT22;7103;54.300;10.180;2023-12-07T15:17:13;1.90;1.00
14057;DHT22;7103;54.300;10.180;2023-12-07T15:19:40;1.90;1.00
14057;DHT22;7103;54.300;10.180;2023-12-07T15:22:08;2.00;1.00
14057;DHT22;7103;54.300;10.180;2023-12-07T15:24:36;1.90;1.00
14057;DHT22;7103;54.300;10.180;2023-12-07T15:27:06;1.80;1.00
14057;DHT22;7103;54.300;10.180;2023-12-07T15:29:33;1.80;1.00
14057;DHT22;7103;54.300;10.180;2023-12-07T15:32:03;1.80;1.00
14057;DHT22;7103;54.300;10.180;2023-12-07T15:34:31;1.90;1.00
14057;DHT22;7103;54.300;10.180;2023-12-07T15:37:06;1.90;3.80
14057;DHT22;7103;54.300;10.180;2023-12-07T15:39:34;2.00;17.50
14057;DHT22;7103;54.300;10.180;2023-12-07T15:42:01;2.00;34.10
14057;DHT22;7103;54.300;10.180;2023-12-07T15:44:29;2.10;51.10
14057;DHT22;7103;54.300;10.180;2023-12-07T15:46:58;2.10;46.00
14057;DHT22;7103;54.300;10.180;2023-12-07T15:49:25;2.20;41.90
14057;DHT22;7103;54.300;10.180;2023-12-07T15:51:53;2.20;46.30
14057;DHT22;7103;54.300;10.180;2023-12-07T15:54:25;2.20;62.90
14057;DHT22;7103;54.300;10.180;2023-12-07T15:57:05;2.10;52.10
14057;DHT22;7103;54.300;10.180;2023-12-07T15:59:32;2.10;46.00
14057;DHT22;7103;54.300;10.180;2023-12-07T16:01:59;2.00;34.10
14057;DHT22;7103;54.300;10.180;2023-12-07T16:04:28;1.90;24.20
14057;DHT22;7103;54.300;10.180;2023-12-07T16:07:02;1.90;23.50